createdAt,value
2022-12-08T06:35:07.861Z,85.63
2022-12-08T06:40:10.411Z,85.88
2022-12-08T06:45:17.357Z,85.77
2022-12-08T06:50:19.509Z,85.73
2022-12-08T06:55:50.729Z,85.50
2022-12-08T07:00:43.725Z,85.60
2022-12-08T07:05:45.815Z,85.34
2022-12-08T07:10:47.789Z,85.09
2022-12-08T07:15:49.842Z,85.11
2022-12-08T07:20:52.064Z,85.04
2022-12-08T07:25:54.104Z,85.06
2022-12-08T07:30:56.163Z,84.93
2022-12-08T07:36:01.384Z,84.58
2022-12-08T07:41:03.413Z,84.39
2022-12-08T07:46:05.734Z,84.66
2022-12-08T07:51:08.435Z,84.74
2022-12-08T07:56:11.874Z,84.55
2022-12-08T08:01:20.277Z,84.05
2022-12-08T08:06:22.856Z,83.56
2022-12-08T08:11:24.843Z,83.15
2022-12-08T08:16:27.151Z,82.04
2022-12-08T08:21:45.058Z,81.26
2022-12-08T08:26:48.069Z,81.59
2022-12-08T08:31:50.229Z,81.26
2022-12-08T08:36:52.416Z,81.10
2022-12-08T08:41:54.482Z,80.17
2022-12-08T08:46:56.567Z,79.94
2022-12-08T08:51:58.615Z,79.66
2022-12-08T08:57:00.950Z,79.11
2022-12-08T09:02:03.188Z,78.76
2022-12-08T09:07:05.265Z,79.20
2022-12-08T09:12:08.079Z,79.23
2022-12-08T09:17:10.131Z,79.47
2022-12-08T09:22:14.631Z,79.86
2022-12-08T09:27:21.791Z,80.13
2022-12-08T09:32:23.800Z,79.88
2022-12-08T09:37:26.272Z,79.77
2022-12-08T09:42:47.656Z,79.65
2022-12-08T09:47:58.775Z,79.75
2022-12-08T09:53:19.688Z,79.67
2022-12-08T09:58:29.279Z,79.36
2022-12-08T10:03:31.535Z,78.84
2022-12-08T10:08:56.867Z,78.39
2022-12-08T10:14:42.528Z,77.58
2022-12-08T10:19:46.975Z,77.37
2022-12-08T10:24:57.912Z,77.60
2022-12-08T10:29:59.968Z,77.04
2022-12-08T10:35:13.475Z,77.23
2022-12-08T10:40:18.108Z,77.06
2022-12-08T10:45:30.493Z,77.01
2022-12-08T10:50:47.141Z,76.46
2022-12-08T10:55:51.006Z,76.45
2022-12-08T11:00:57.689Z,75.59
2022-12-08T11:06:09.040Z,74.99
2022-12-08T11:11:13.559Z,74.05
2022-12-08T11:16:17.688Z,74.05
2022-12-08T11:21:19.874Z,74.50
2022-12-08T11:26:33.819Z,74.00
2022-12-08T11:31:43.727Z,73.83
2022-12-08T11:36:47.279Z,73.57
2022-12-08T11:41:53.575Z,72.85
2022-12-08T11:47:05.312Z,72.69
2022-12-08T11:52:32.051Z,72.51
2022-12-08T11:57:34.120Z,72.02
2022-12-08T12:02:42.709Z,71.99
2022-12-08T12:07:44.875Z,71.51
2022-12-08T12:13:14.760Z,70.60
2022-12-08T12:18:46.554Z,70.12
2022-12-08T12:23:59.525Z,69.43
2022-12-08T12:29:16.310Z,68.66
2022-12-08T12:34:25.710Z,69.19
2022-12-08T12:39:30.799Z,69.13
2022-12-08T12:57:14.530Z,68.55
2022-12-08T13:02:20.133Z,68.92
2022-12-08T13:07:34.902Z,73.02
2022-12-08T13:12:37.033Z,75.02
2022-12-08T13:17:45.873Z,76.04
2022-12-08T13:22:54.047Z,76.33
2022-12-08T13:27:56.090Z,76.54
2022-12-08T13:33:18.244Z,76.83
2022-12-08T13:38:22.397Z,76.17
2022-12-08T13:43:48.330Z,73.81
2022-12-08T13:59:52.085Z,71.52
2022-12-08T14:10:25.910Z,71.33
2022-12-08T14:15:32.575Z,71.14
2022-12-08T14:20:58.316Z,71.64
2022-12-08T14:25:59.666Z,73.39
2022-12-08T14:31:03.755Z,74.41
2022-12-08T14:36:06.027Z,75.15
2022-12-08T14:41:11.622Z,75.49
2022-12-08T14:46:22.349Z,76.05
2022-12-08T14:51:31.579Z,76.28
2022-12-08T14:56:38.434Z,75.79
2022-12-08T15:01:41.980Z,75.74
2022-12-08T15:06:49.786Z,75.76
2022-12-08T15:12:01.680Z,76.07
2022-12-08T15:17:24.289Z,76.13
2022-12-08T15:22:29.178Z,75.82
2022-12-08T15:27:34.976Z,75.69
2022-12-08T15:32:43.908Z,75.84
2022-12-08T15:37:46.738Z,75.00
2022-12-08T15:42:49.451Z,74.20
2022-12-08T15:47:51.471Z,73.89
2022-12-08T15:52:53.490Z,73.32
2022-12-08T16:09:06.260Z,73.86
2022-12-08T16:15:01.991Z,74.03
2022-12-08T16:19:35.780Z,74.18
2022-12-08T16:24:37.814Z,73.76
2022-12-08T16:29:39.885Z,73.71
2022-12-08T16:34:42.518Z,73.04
2022-12-08T16:39:46.209Z,72.90
2022-12-08T16:44:48.358Z,74.12
2022-12-08T16:49:50.651Z,76.01
2022-12-08T16:59:54.919Z,77.24
2022-12-08T17:04:56.957Z,77.82
2022-12-08T17:09:59.174Z,77.45
2022-12-08T17:15:07.516Z,78.14
2022-12-08T17:20:14.848Z,78.35
2022-12-08T17:25:17.005Z,78.63
2022-12-08T17:30:19.698Z,77.52
2022-12-08T17:35:21.845Z,77.88
2022-12-08T17:40:28.077Z,77.78
2022-12-08T17:45:30.434Z,77.58
2022-12-08T17:50:32.588Z,77.66
2022-12-08T17:55:35.724Z,77.66
2022-12-08T18:00:37.816Z,77.43
2022-12-08T18:05:39.894Z,77.25
2022-12-08T18:10:42.047Z,77.49
2022-12-08T18:15:44.085Z,76.62
2022-12-08T18:20:46.755Z,77.09
2022-12-08T18:25:48.898Z,77.22
2022-12-08T18:30:51.163Z,77.53
2022-12-08T18:35:53.451Z,77.24
2022-12-08T18:40:55.552Z,77.29
2022-12-08T18:46:02.895Z,76.98
2022-12-08T18:51:10.898Z,76.62
2022-12-08T18:56:27.964Z,76.10
2022-12-08T19:01:31.314Z,76.08
2022-12-08T19:06:33.498Z,75.30
2022-12-08T19:11:35.583Z,75.48
2022-12-08T19:16:38.408Z,76.25
2022-12-08T19:21:46.108Z,76.20
2022-12-08T19:26:48.768Z,76.04
2022-12-08T19:31:50.903Z,76.44
2022-12-08T19:36:53.151Z,76.16
2022-12-08T19:42:13.562Z,75.99
2022-12-08T19:47:15.825Z,74.03
2022-12-08T19:52:18.608Z,75.79
2022-12-08T19:57:20.700Z,75.47
2022-12-08T20:02:22.905Z,75.94
2022-12-08T20:07:25.010Z,76.15
2022-12-08T20:12:27.031Z,76.00
2022-12-08T20:17:29.476Z,76.19
2022-12-08T20:22:31.624Z,76.07
2022-12-08T20:27:33.684Z,75.70
2022-12-08T20:32:35.767Z,76.06
2022-12-08T20:37:37.835Z,76.53
2022-12-08T20:42:40.076Z,76.86
2022-12-08T20:47:42.110Z,77.29
2022-12-08T20:52:44.257Z,77.37
2022-12-08T20:57:46.351Z,77.95
2022-12-08T21:02:56.084Z,77.93
2022-12-08T21:07:58.938Z,77.49
2022-12-08T21:13:02.106Z,77.62
2022-12-08T21:18:04.730Z,77.84
2022-12-08T21:23:06.889Z,77.67
2022-12-08T21:28:09.642Z,77.95
2022-12-08T21:33:11.794Z,78.05
